Aledo, Texas
Current Conditions -  °F | °C
As of 12:52 AM on Thursday 23 Oct 2014 (Local Time) from KNFW Reporting Station
Scattered Clouds Scattered Clouds  
Wind Chill: 24°   Ceiling: Unl
Heat Index: 24°   Visibility: 10mi
Dew Point: 12°   Wind: 7mph
Humidity: 45%   Direction: 130°SE
Pressure: 30.15"   Gusts: NA
Location:  32.7°N, 97.6°W
Report Text: KNFW 230552Z AUTO 13006KT 10SM FEW090 SCT120 24/12 A3015 RMK AO2 SLP191 T02440117 10272 20244 403110172 53001 CHINO N VISNO N $
Loading
Personal Weather Stations






























Interactive Weather Map
Tropical Storm Tracking
New forecast layout! Learn more

10-Day Weather Forecast

Advertisements
Track Severe Weather on mobile